Time;durP1;ratioP1;P1;durP2;ratioP2;P2;SDS_P1;SDS_P2;PMS_P1;PMS_P2;Temp;Humidity;BMP_temperature;BMP_pressure;BME280_temperature;BME280_humidity;BME280_pressure;Samples;Min_cycle;Max_cycle;Signal;HPM_P1;HPM_P2
2022/01/18 00:01:27;;;;;;;11.73;3.45;;;20.10;55.90;;;;;;4483129;31;20187;-65
2022/01/18 00:04:12;;;;;;;11.77;3.13;;;20.10;55.90;;;;;;4483164;31;20140;-65
2022/01/18 00:06:40;;;;;;;9.50;3.13;;;20.10;55.90;;;;;;4482374;31;20140;-65
2022/01/18 00:09:07;;;;;;;10.02;2.83;;;20.10;55.90;;;;;;4482819;31;20136;-65
2022/01/18 00:11:41;;;;;;;8.02;2.63;;;20.00;55.90;;;;;;4482454;32;20121;-65
2022/01/18 00:14:13;;;;;;;;;;;20.00;55.90;;;;;;4483880;31;20132;-65
2022/01/18 00:17:01;;;;;;;11.75;3.05;;;20.00;55.90;;;;;;4482613;32;20024;-65
2022/01/18 00:19:25;;;;;;;8.73;3.00;;;20.00;56.10;;;;;;4482104;31;20147;-65
2022/01/18 00:24:26;;;;;;;10.32;3.08;;;19.90;56.10;;;;;;4482297;32;20137;-65
2022/01/18 00:26:52;;;;;;;12.07;3.17;;;19.90;56.10;;;;;;4482448;32;20214;-65
2022/01/18 00:29:21;;;;;;;8.88;2.63;;;19.90;56.10;;;;;;4482319;32;20179;-65
2022/01/18 00:34:24;;;;;;;11.23;3.17;;;19.80;56.20;;;;;;4482630;32;20128;-65
2022/01/18 00:36:58;;;;;;;13.38;3.53;;;19.80;56.10;;;;;;4481816;32;20163;-65
2022/01/18 00:39:25;;;;;;;9.45;3.00;;;19.80;56.20;;;;;;4482415;32;20172;-65
2022/01/18 00:41:51;;;;;;;8.38;2.90;;;19.80;56.20;;;;;;4481660;31;20132;-64
2022/01/18 00:44:17;;;;;;;8.70;2.80;;;19.70;56.20;;;;;;4481030;32;20117;-65
2022/01/18 00:46:44;;;;;;;9.50;2.83;;;19.80;56.20;;;;;;4482343;32;20470;-65
2022/01/18 00:49:11;;;;;;;10.70;3.05;;;19.70;56.20;;;;;;4481748;31;20210;-65
2022/01/18 00:51:39;;;;;;;6.97;2.88;;;19.70;56.20;;;;;;4482286;31;20129;-65
2022/01/18 00:54:07;;;;;;;11.18;3.05;;;19.70;56.20;;;;;;4481540;31;20151;-65
2022/01/18 00:56:38;;;;;;;9.02;2.75;;;19.70;56.20;;;;;;4482186;31;20125;-65
2022/01/18 00:59:04;;;;;;;8.52;2.97;;;19.70;56.30;;;;;;4481594;32;20159;-65
2022/01/18 01:01:30;;;;;;;9.48;3.25;;;19.60;56.20;;;;;;4481878;32;20144;-65
2022/01/18 01:04:01;;;;;;;9.40;2.75;;;19.60;56.20;;;;;;4481667;31;20125;-65
2022/01/18 01:06:27;;;;;;;9.82;2.78;;;19.60;56.30;;;;;;4481737;31;20140;-65
2022/01/18 01:08:53;;;;;;;10.07;2.67;;;19.60;56.30;;;;;;4481535;31;20129;-64
2022/01/18 01:11:20;;;;;;;9.65;2.83;;;19.60;56.30;;;;;;4481783;31;20132;-65
2022/01/18 01:13:49;;;;;;;9.68;3.03;;;19.60;56.40;;;;;;4481845;31;20144;-65
2022/01/18 01:35:04;;;;;;;6.65;2.55;;;19.50;56.40;;;;;;4481361;31;20136;-64
2022/01/18 01:43:23;;;;;;;9.57;2.92;;;19.40;56.40;;;;;;4481768;31;20132;-65
2022/01/18 01:45:42;;;;;;;11.95;3.17;;;19.40;56.40;;;;;;4479919;32;20809;-65
2022/01/18 01:48:08;;;;;;;9.95;3.28;;;19.40;56.40;;;;;;4481250;32;20139;-65
2022/01/18 01:50:49;;;;;;;6.70;2.47;;;19.40;56.40;;;;;;4480981;32;20247;-64
2022/01/18 01:53:17;;;;;;;9.20;2.80;;;19.30;56.30;;;;;;4480744;32;20147;-65
2022/01/18 01:55:43;;;;;;;7.00;2.35;;;19.30;56.40;;;;;;4481256;31;20278;-65
2022/01/18 01:58:10;;;;;;;7.80;2.78;;;19.30;56.30;;;;;;4478943;32;20132;-66
2022/01/18 02:00:49;;;;;;;9.50;2.92;;;19.30;56.30;;;;;;4480717;31;20171;-65
2022/01/18 02:03:15;;;;;;;8.10;2.47;;;19.30;56.40;;;;;;4480842;32;20137;-65
2022/01/18 02:05:41;;;;;;;7.50;2.30;;;19.30;56.40;;;;;;4481188;31;20277;-65
2022/01/18 02:08:07;;;;;;;7.53;2.53;;;19.30;56.40;;;;;;4480795;31;20143;-65
2022/01/18 02:10:35;;;;;;;8.45;2.88;;;19.20;56.40;;;;;;4480526;31;20129;-65
2022/01/18 02:13:01;;;;;;;7.28;2.30;;;19.20;57.30;;;;;;4480794;31;20160;-64
2022/01/18 02:15:27;;;;;;;7.88;2.65;;;19.20;56.40;;;;;;4480609;32;20623;-65
2022/01/18 02:23:26;;;;;;;10.48;3.25;;;19.20;56.50;;;;;;4480616;32;20597;-66
2022/01/18 02:25:52;;;;;;;7.72;2.55;;;19.10;56.40;;;;;;4480845;32;20132;-65
2022/01/18 02:28:19;;;;;;;6.38;2.60;;;19.20;56.50;;;;;;4480302;32;20133;-65
2022/01/18 02:30:46;;;;;;;6.47;2.50;;;19.20;56.50;;;;;;4481003;32;20129;-65
2022/01/18 02:33:14;;;;;;;5.90;2.40;;;19.20;56.50;;;;;;4479192;32;20137;-66
2022/01/18 02:35:40;;;;;;;7.05;2.20;;;19.20;56.50;;;;;;4480803;32;20129;-65
2022/01/18 02:38:06;;;;;;;8.75;2.50;;;19.10;56.50;;;;;;4480480;31;20273;-65
2022/01/18 02:40:33;;;;;;;8.13;2.42;;;19.10;56.40;;;;;;4480553;32;20626;-66
2022/01/18 02:43:46;;;;;;;6.00;2.28;;;19.10;56.50;;;;;;4480958;32;20124;-65
2022/01/18 02:45:48;;;;;;;5.15;1.98;;;19.10;56.50;;;;;;4480277;32;20125;-65
2022/01/18 02:48:15;;;;;;;7.65;2.20;;;19.10;56.50;;;;;;4480585;32;20132;-65
2022/01/18 02:50:41;;;;;;;9.38;2.20;;;19.10;56.50;;;;;;4480342;32;20190;-65
2022/01/18 02:53:07;;;;;;;4.93;2.15;;;19.10;56.50;;;;;;4479179;32;20146;-64
2022/01/18 02:55:33;;;;;;;8.77;2.78;;;19.10;56.40;;;;;;4480662;32;20129;-65
2022/01/18 02:58:05;;;;;;;6.28;2.30;;;19.10;56.40;;;;;;4480335;32;20176;-65
2022/01/18 03:00:42;;;;;;;10.48;2.72;;;19.10;56.40;;;;;;4480680;32;20136;-65
2022/01/18 03:03:16;;;;;;;7.20;2.50;;;19.00;56.40;;;;;;4480134;32;20117;-65
2022/01/18 03:05:43;;;;;;;;;;;19.10;56.50;;;;;;4481348;32;20129;-65
2022/01/18 03:08:11;;;;;;;6.43;2.17;;;19.00;56.40;;;;;;4481459;32;20021;-65
2022/01/18 03:10:39;;;;;;;7.20;2.20;;;19.00;56.50;;;;;;4483177;32;20195;-65
2022/01/18 03:13:05;;;;;;;6.43;2.17;;;19.00;56.50;;;;;;4483704;32;20132;-65
2022/01/18 03:15:32;;;;;;;5.63;2.40;;;19.00;56.50;;;;;;4483254;32;20205;-65
2022/01/18 03:17:57;;;;;;;6.40;2.38;;;19.00;56.50;;;;;;4483731;31;20194;-65
2022/01/18 03:20:24;;;;;;;5.20;1.98;;;19.00;56.50;;;;;;4482883;32;20129;-65
2022/01/18 03:22:50;;;;;;;6.22;2.25;;;19.00;56.50;;;;;;4483529;32;20117;-65
2022/01/18 03:26:01;;;;;;;7.88;2.30;;;19.00;56.50;;;;;;4483222;31;20578;-65
2022/01/18 03:28:08;;;;;;;6.10;1.88;;;18.90;56.40;;;;;;4478129;31;20712;-65
2022/01/18 03:30:47;;;;;;;4.10;1.75;;;19.00;56.40;;;;;;4483567;31;20136;-65
2022/01/18 03:33:16;;;;;;;6.43;1.98;;;19.00;56.40;;;;;;4482281;31;20137;-65
2022/01/18 03:35:43;;;;;;;5.20;1.90;;;19.00;56.40;;;;;;4482706;32;20125;-65
2022/01/18 03:38:11;;;;;;;5.10;1.92;;;18.90;56.40;;;;;;4481379;31;20128;-64
2022/01/18 03:40:37;;;;;;;6.03;2.17;;;18.90;56.40;;;;;;4481904;32;20320;-65
2022/01/18 03:43:06;;;;;;;6.15;2.10;;;18.90;56.40;;;;;;4481763;31;20143;-65
2022/01/18 03:45:43;;;;;;;4.18;1.60;;;18.90;56.40;;;;;;4480917;31;20209;-65
2022/01/18 03:48:16;;;;;;;7.43;2.25;;;18.90;56.40;;;;;;4482252;31;20159;-64
2022/01/18 03:50:43;;;;;;;5.78;2.00;;;18.90;56.40;;;;;;4481129;31;20179;-65
2022/01/18 03:53:11;;;;;;;6.50;2.17;;;18.90;57.40;;;;;;4480819;32;20121;-65
2022/01/18 03:55:37;;;;;;;6.20;1.90;;;18.90;56.40;;;;;;4481840;32;20234;-65
2022/01/18 03:58:03;;;;;;;5.82;2.08;;;18.90;56.40;;;;;;4481567;32;20172;-65
2022/01/18 04:00:29;;;;;;;4.70;1.95;;;18.90;56.40;;;;;;4481441;32;20125;-65
2022/01/18 04:02:56;;;;;;;7.22;2.03;;;18.90;56.40;;;;;;4481232;32;20667;-65
2022/01/18 04:05:22;;;;;;;4.80;1.73;;;18.90;56.40;;;;;;4481674;31;20192;-65
2022/01/18 04:07:48;;;;;;;5.82;1.55;;;18.80;56.30;;;;;;4481173;32;20125;-65
2022/01/18 04:10:15;;;;;;;5.13;1.65;;;18.80;56.40;;;;;;4480825;31;20274;-64
2022/01/18 04:12:41;;;;;;;5.40;1.85;;;18.80;56.30;;;;;;4481705;32;20141;-65
2022/01/18 04:15:11;;;;;;;7.07;1.77;;;18.80;57.30;;;;;;4481090;32;20141;-65
2022/01/18 04:28:30;;;;;;;5.28;2.00;;;18.80;56.40;;;;;;4480566;32;20144;-65
2022/01/18 04:30:56;;;;;;;5.10;1.80;;;18.80;56.40;;;;;;4481387;32;20272;-65
2022/01/18 04:33:23;;;;;;;5.95;1.90;;;18.80;56.40;;;;;;4480548;32;20526;-65
2022/01/18 04:35:49;;;;;;;4.03;1.48;;;18.70;56.40;;;;;;4479240;32;20140;-65
2022/01/18 04:38:15;;;;;;;5.97;1.75;;;18.70;56.40;;;;;;4482211;32;20125;-64
2022/01/18 04:40:44;;;;;;;4.68;1.50;;;18.70;56.40;;;;;;4481440;32;20145;-65
2022/01/18 04:43:17;;;;;;;4.53;1.65;;;18.70;56.40;;;;;;4481205;31;20148;-65
2022/01/18 04:48:30;;;;;;;4.80;1.70;;;18.70;56.40;;;;;;4480730;32;20659;-64
2022/01/18 04:51:08;;;;;;;4.78;1.55;;;18.70;56.40;;;;;;4480903;32;20135;-64
2022/01/18 04:53:35;;;;;;;5.15;1.95;;;18.70;56.40;;;;;;4480114;32;20129;-65
2022/01/18 04:56:07;;;;;;;5.15;1.60;;;18.70;56.40;;;;;;4481653;31;20207;-65
2022/01/18 04:58:34;;;;;;;4.10;1.83;;;18.70;56.40;;;;;;4480010;32;20904;-65
2022/01/18 05:01:02;;;;;;;3.22;1.40;;;18.60;56.30;;;;;;4480954;31;20133;-65
2022/01/18 05:03:30;;;;;;;5.45;1.75;;;18.60;56.40;;;;;;4492003;31;20251;-65
2022/01/18 05:06:00;;;;;;;4.47;1.35;;;18.60;56.30;;;;;;4480462;31;20203;-65
2022/01/18 05:08:26;;;;;;;3.67;1.40;;;18.60;56.30;;;;;;4480465;31;20229;-65
2022/01/18 05:10:56;;;;;;;4.22;1.58;;;18.60;56.30;;;;;;4481389;31;20634;-65
2022/01/18 05:21:30;;;;;;;3.38;1.80;;;18.60;56.40;;;;;;4479044;32;20139;-65
2022/01/18 05:23:56;;;;;;;3.95;1.30;;;18.60;56.40;;;;;;4481084;31;20179;-65
2022/01/18 05:26:23;;;;;;;4.35;1.42;;;18.60;56.40;;;;;;4480883;31;20149;-65
2022/01/18 05:28:49;;;;;;;3.58;1.27;;;18.60;56.40;;;;;;4480467;32;20146;-65
2022/01/18 05:31:16;;;;;;;3.95;1.42;;;18.60;56.40;;;;;;4481188;32;20135;-65
2022/01/18 05:33:43;;;;;;;3.83;1.38;;;18.60;56.40;;;;;;4480682;32;20197;-65
2022/01/18 05:36:10;;;;;;;3.47;1.33;;;18.60;56.40;;;;;;4480799;31;20140;-65
2022/01/18 05:38:37;;;;;;;4.05;1.52;;;18.50;56.40;;;;;;4480918;31;20164;-65
2022/01/18 05:41:08;;;;;;;2.95;1.30;;;18.50;56.40;;;;;;4480304;31;20144;-65
2022/01/18 05:43:35;;;;;;;2.85;1.30;;;18.50;56.40;;;;;;4479950;31;20152;-65
2022/01/18 05:46:01;;;;;;;3.63;1.20;;;18.50;56.40;;;;;;4479534;31;20525;-65
2022/01/18 05:48:27;;;;;;;4.15;1.73;;;18.50;56.40;;;;;;4479818;31;20135;-65
2022/01/18 05:50:59;;;;;;;2.65;1.10;;;18.50;56.40;;;;;;4479884;31;20283;-65
2022/01/18 05:53:33;;;;;;;4.20;1.40;;;18.50;56.40;;;;;;4477459;32;20147;-65
2022/01/18 05:55:59;;;;;;;3.97;1.33;;;18.50;56.40;;;;;;4480186;31;20131;-65
2022/01/18 05:58:25;;;;;;;2.95;1.17;;;18.50;56.40;;;;;;4477554;32;20125;-64
2022/01/18 06:00:55;;;;;;;4.03;1.27;;;18.50;56.40;;;;;;4480498;32;20530;-65
2022/01/18 06:03:35;;;;;;;4.95;1.25;;;18.50;56.40;;;;;;4480739;31;20125;-65
2022/01/18 06:08:46;;;;;;;3.28;1.17;;;18.50;56.40;;;;;;4479962;32;20303;-65
2022/01/18 06:11:12;;;;;;;2.80;1.10;;;18.40;57.30;;;;;;4480892;31;20117;-64
2022/01/18 06:13:38;;;;;;;4.35;1.58;;;18.40;56.40;;;;;;4492898;31;20140;-64
2022/01/18 06:16:04;;;;;;;3.83;1.30;;;18.40;56.40;;;;;;4479981;31;20114;-65
2022/01/18 06:18:30;;;;;;;3.58;1.10;;;18.40;56.40;;;;;;4465000;32;20549;-64
2022/01/18 06:20:58;;;;;;;3.90;1.23;;;18.40;56.40;;;;;;4465567;32;20119;-65
2022/01/18 06:23:24;;;;;;;3.22;1.13;;;18.40;56.40;;;;;;4464776;32;20606;-65
2022/01/18 06:25:50;;;;;;;4.65;1.20;;;18.40;56.40;;;;;;4465163;32;20283;-65
2022/01/18 06:28:16;;;;;;;2.75;1.20;;;18.40;56.40;;;;;;4464897;32;20582;-65
2022/01/18 06:30:42;;;;;;;4.05;1.50;;;18.40;56.40;;;;;;4464966;32;20179;-65
2022/01/18 06:33:08;;;;;;;2.90;1.05;;;18.40;56.40;;;;;;4464773;32;20187;-64
2022/01/18 06:35:35;;;;;;;4.03;1.30;;;18.40;56.40;;;;;;4465094;32;20141;-64
2022/01/18 06:38:01;;;;;;;4.18;1.02;;;18.40;56.40;;;;;;4465138;32;20467;-64
2022/01/18 06:40:27;;;;;;;3.90;1.05;;;18.40;56.20;;;;;;4463578;32;20136;-63
2022/01/18 06:42:53;;;;;;;4.75;1.08;;;18.40;55.50;;;;;;4464790;32;20113;-64
2022/01/18 06:45:19;;;;;;;5.65;1.10;;;18.30;55.10;;;;;;4464779;32;20128;-64
2022/01/18 06:47:45;;;;;;;5.18;1.20;;;18.30;55.40;;;;;;4464835;32;20137;-64
2022/01/18 06:50:11;;;;;;;4.05;1.35;;;18.30;55.60;;;;;;4464650;32;20175;-65
2022/01/18 06:52:38;;;;;;;4.63;0.93;;;18.30;55.80;;;;;;4465036;32;20148;-64
2022/01/18 06:55:06;;;;;;;3.10;1.20;;;18.30;55.90;;;;;;4464782;32;20238;-64
2022/01/18 06:57:32;;;;;;;7.28;1.30;;;18.30;55.90;;;;;;4464300;32;20137;-64
2022/01/18 06:59:58;;;;;;;7.10;1.33;;;18.30;55.90;;;;;;4465031;32;20518;-65
2022/01/18 07:02:24;;;;;;;5.97;1.33;;;18.40;56.10;;;;;;4463558;32;20176;-65
2022/01/18 07:04:49;;;;;;;6.47;0.93;;;18.40;56.20;;;;;;4464773;32;20118;-65
2022/01/18 07:07:17;;;;;;;4.47;1.45;;;18.40;56.20;;;;;;4464461;32;20548;-64
2022/01/18 07:09:44;;;;;;;5.03;1.10;;;18.40;56.20;;;;;;4464598;32;20129;-64
2022/01/18 07:12:11;;;;;;;5.38;1.15;;;18.40;56.30;;;;;;4464656;32;20133;-65
2022/01/18 07:14:39;;;;;;;5.32;1.30;;;18.50;56.30;;;;;;4472262;32;20242;-68
2022/01/18 07:17:05;;;;;;;8.90;1.05;;;18.50;56.20;;;;;;4480617;32;20140;-65
2022/01/18 07:19:32;;;;;;;2.75;0.90;;;18.70;55.90;;;;;;4480013;32;20125;-64
2022/01/18 07:21:59;;;;;;;4.25;1.05;;;18.70;55.50;;;;;;4480553;32;20194;-64
2022/01/18 07:27:21;;;;;;;5.53;1.17;;;19.20;55.10;;;;;;4472184;32;20152;-65
2022/01/18 07:29:47;;;;;;;4.78;1.33;;;19.30;54.70;;;;;;4480173;32;20144;-65
2022/01/18 07:32:14;;;;;;;5.05;1.10;;;19.50;54.40;;;;;;4491883;32;20121;-66
2022/01/18 07:34:49;;;;;;;5.93;1.33;;;19.60;54.00;;;;;;4479897;32;20255;-69
2022/01/18 07:37:15;;;;;;;3.50;0.77;;;19.80;53.70;;;;;;4480055;32;20125;-66
2022/01/18 07:39:41;;;;;;;4.35;1.20;;;19.90;53.30;;;;;;4480155;32;20123;-68
2022/01/18 07:42:08;;;;;;;8.80;1.20;;;20.00;53.00;;;;;;4479984;32;20267;-69
2022/01/18 07:44:34;;;;;;;7.72;0.88;;;20.20;52.70;;;;;;4479721;32;20136;-66
2022/01/18 07:47:00;;;;;;;4.70;1.25;;;20.30;52.50;;;;;;4480236;32;20137;-69
2022/01/18 07:49:25;;;;;;;6.93;1.17;;;20.40;52.30;;;;;;4479726;32;20121;-67
2022/01/18 07:51:51;;;;;;;10.73;1.45;;;20.60;52.00;;;;;;4479943;32;20135;-65
2022/01/18 07:54:18;;;;;;;5.90;0.90;;;20.70;51.80;;;;;;4479828;32;20145;-67
2022/01/18 07:56:44;;;;;;;31.90;1.70;;;20.80;51.50;;;;;;4482859;32;20125;-67
2022/01/18 07:59:11;;;;;;;20.85;1.73;;;20.90;51.50;;;;;;4482697;32;20226;-65
2022/01/18 08:01:38;;;;;;;8.75;1.10;;;20.90;51.30;;;;;;4482534;31;20141;-64
2022/01/18 08:04:04;;;;;;;7.38;1.20;;;20.90;51.40;;;;;;4482193;32;20195;-64
2022/01/18 08:06:30;;;;;;;7.55;1.60;;;20.90;51.30;;;;;;4482283;31;20559;-64
2022/01/18 08:08:56;;;;;;;6.70;1.10;;;20.80;51.20;;;;;;4482515;32;20168;-64
2022/01/18 08:11:22;;;;;;;5.82;1.30;;;20.80;51.10;;;;;;4482417;32;20137;-64
2022/01/18 08:13:50;;;;;;;9.95;2.10;;;20.70;51.10;;;;;;4482616;32;20560;-64
2022/01/18 08:18:54;;;;;;;6.35;1.50;;;20.50;51.30;;;;;;4482145;31;20133;-65
2022/01/18 08:21:21;;;;;;;6.25;1.77;;;20.40;51.40;;;;;;4482755;31;20144;-64
2022/01/18 08:23:47;;;;;;;13.85;2.08;;;20.30;51.50;;;;;;4482181;32;20554;-65
2022/01/18 08:26:13;;;;;;;12.40;1.90;;;20.20;51.60;;;;;;4482579;32;20131;-64
2022/01/18 08:28:39;;;;;;;16.38;2.28;;;20.10;51.60;;;;;;4482288;31;20137;-62
2022/01/18 08:31:05;;;;;;;5.30;1.60;;;20.10;51.90;;;;;;4482361;32;20255;-62
2022/01/18 08:33:32;;;;;;;8.50;1.60;;;20.00;52.10;;;;;;4482439;31;20145;-64
2022/01/18 08:36:00;;;;;;;7.60;1.80;;;19.90;52.20;;;;;;4481931;31;20129;-63
2022/01/18 08:38:27;;;;;;;15.15;2.03;;;19.90;52.40;;;;;;4482615;31;20137;-66
2022/01/18 08:40:54;;;;;;;6.47;1.48;;;19.80;52.40;;;;;;4481640;32;20121;-66
2022/01/18 08:43:21;;;;;;;10.27;1.77;;;19.70;52.30;;;;;;4482398;31;20133;-65
2022/01/18 08:45:47;;;;;;;13.27;1.90;;;19.70;52.10;;;;;;4481653;32;20141;-65
2022/01/18 08:48:14;;;;;;;5.60;1.63;;;19.60;51.70;;;;;;4482246;31;20137;-65
2022/01/18 08:50:40;;;;;;;7.05;1.63;;;19.60;51.70;;;;;;4482263;32;20113;-66
2022/01/18 08:53:06;;;;;;;6.75;1.50;;;19.70;51.30;;;;;;4481511;31;20133;-63
2022/01/18 08:55:34;;;;;;;9.30;1.85;;;19.70;50.60;;;;;;4482485;31;20169;-63
2022/01/18 08:58:00;;;;;;;8.05;1.90;;;19.80;50.70;;;;;;4481318;32;20187;-64
2022/01/18 09:00:26;;;;;;;8.45;1.60;;;19.80;50.60;;;;;;4482143;32;20137;-63
2022/01/18 09:02:52;;;;;;;5.88;1.83;;;19.70;50.80;;;;;;4481425;32;20616;-65
2022/01/18 09:05:22;;;;;;;6.45;1.75;;;19.60;51.10;;;;;;4481956;31;20125;-66
2022/01/18 09:07:48;;;;;;;7.75;1.88;;;19.50;51.30;;;;;;4481561;32;20121;-65
2022/01/18 09:10:15;;;;;;;8.35;1.77;;;19.50;51.50;;;;;;4481341;31;20141;-64
2022/01/18 09:12:41;;;;;;;10.80;1.75;;;19.50;51.60;;;;;;4481928;31;20200;-64
2022/01/18 09:15:09;;;;;;;7.28;1.60;;;19.40;51.70;;;;;;4481147;31;20113;-63
2022/01/18 09:17:37;;;;;;;10.30;1.83;;;19.30;51.90;;;;;;4481745;32;20139;-64
2022/01/18 09:20:08;;;;;;;6.68;1.45;;;19.30;52.10;;;;;;4481057;31;20121;-64
2022/01/18 09:22:39;;;;;;;6.45;1.70;;;19.30;51.90;;;;;;4481837;31;20522;-65
2022/01/18 09:25:17;;;;;;;6.40;1.75;;;19.20;51.90;;;;;;4481644;31;20124;-64
2022/01/18 09:27:43;;;;;;;10.32;1.65;;;19.20;52.10;;;;;;4481179;31;20233;-64
2022/01/18 09:30:10;;;;;;;6.13;1.70;;;19.30;52.20;;;;;;4481352;32;20251;-64
2022/01/18 09:32:36;;;;;;;16.42;1.88;;;19.30;52.10;;;;;;4480398;32;20470;-66
2022/01/18 09:35:02;;;;;;;5.18;1.30;;;19.40;52.10;;;;;;4481104;32;21077;-67
2022/01/18 09:37:28;;;;;;;5.60;1.40;;;19.40;52.00;;;;;;4481331;31;20133;-65
2022/01/18 09:39:55;;;;;;;7.20;1.63;;;19.50;51.90;;;;;;4481172;31;20132;-67
2022/01/18 09:42:23;;;;;;;8.15;1.83;;;19.50;51.80;;;;;;4481541;32;20135;-66
2022/01/18 09:44:49;;;;;;;10.75;1.70;;;19.60;51.90;;;;;;4480909;31;20125;-68
2022/01/18 09:47:16;;;;;;;10.95;1.48;;;19.60;51.80;;;;;;4481182;32;20113;-68
2022/01/18 09:49:42;;;;;;;6.30;1.83;;;19.70;51.70;;;;;;4480738;32;20125;-70
2022/01/18 09:52:08;;;;;;;20.67;2.20;;;19.70;51.60;;;;;;4481162;32;20105;-70
2022/01/18 09:54:42;;;;;;;10.17;1.40;;;19.70;51.90;;;;;;4480027;32;20223;-71
2022/01/18 09:57:08;;;;;;;14.77;2.40;;;19.70;51.80;;;;;;4466955;32;20117;-67
2022/01/18 09:59:34;;;;;;;20.35;2.13;;;19.80;51.80;;;;;;4481042;32;20144;-65
2022/01/18 10:02:02;;;;;;;17.48;2.10;;;19.80;51.90;;;;;;4479969;32;20117;-68
2022/01/18 10:04:39;;;;;;;14.63;1.95;;;19.80;51.70;;;;;;4481210;31;20202;-65
2022/01/18 10:07:05;;;;;;;9.63;2.22;;;19.80;51.70;;;;;;4480523;32;20144;-65
2022/01/18 10:09:31;;;;;;;19.63;1.88;;;19.90;51.80;;;;;;4479990;32;20198;-65
2022/01/18 10:12:15;;;;;;;9.70;1.60;;;19.90;52.00;;;;;;4474281;32;20449;-62
2022/01/18 10:15:03;;;;;;;13.38;2.10;;;19.90;52.10;;;;;;4469198;32;20187;-63
2022/01/18 10:17:31;;;;;;;23.63;2.20;;;19.90;52.20;;;;;;4480156;32;20225;-63
2022/01/18 10:20:16;;;;;;;13.32;2.25;;;19.90;52.10;;;;;;4472759;32;20137;-63
2022/01/18 10:22:48;;;;;;;17.65;2.13;;;20.00;52.10;;;;;;4480181;32;20156;-64
2022/01/18 10:25:26;;;;;;;9.38;1.60;;;20.00;52.00;;;;;;4463711;31;22811;-67
2022/01/18 10:27:53;;;;;;;13.48;1.98;;;20.00;52.00;;;;;;4495368;31;20132;-64
2022/01/18 10:30:32;;;;;;;13.32;2.00;;;20.00;51.80;;;;;;4495852;31;20141;-64
2022/01/18 10:33:12;;;;;;;9.18;2.30;;;20.00;51.60;;;;;;4495777;31;20145;-65
2022/01/18 10:36:12;;;;;;;9.02;2.10;;;20.00;51.50;;;;;;4495757;31;20214;-65
2022/01/18 10:38:39;;;;;;;14.15;2.22;;;19.90;51.20;;;;;;4482008;31;20143;-64
2022/01/18 10:41:24;;;;;;;8.77;1.83;;;20.00;51.10;;;;;;4482158;31;20146;-65
2022/01/18 10:44:12;;;;;;;11.15;2.80;;;20.00;50.90;;;;;;4482038;31;20132;-66
2022/01/18 10:46:44;;;;;;;10.93;2.25;;;20.00;50.70;;;;;;4496434;31;20136;-66
2022/01/18 10:49:11;;;;;;;10.00;2.65;;;20.00;50.50;;;;;;4495657;31;20121;-67
2022/01/18 10:51:42;;;;;;;9.82;2.90;;;20.00;50.30;;;;;;4496282;31;20192;-65
2022/01/18 10:54:10;;;;;;;8.18;2.20;;;20.00;50.20;;;;;;4481657;32;20121;-72
2022/01/18 10:56:46;;;;;;;9.70;2.38;;;20.00;50.00;;;;;;4482519;32;20132;-67
2022/01/18 10:59:24;;;;;;;8.70;2.40;;;20.00;50.00;;;;;;4495706;32;20234;-67
2022/01/18 11:02:10;;;;;;;6.95;2.20;;;20.00;50.10;;;;;;4495803;32;20132;-64
2022/01/18 11:04:38;;;;;;;6.75;2.28;;;20.00;50.10;;;;;;4496240;32;20190;-65
2022/01/18 11:07:05;;;;;;;7.07;2.30;;;20.00;50.10;;;;;;4495702;32;20238;-65
2022/01/18 11:09:32;;;;;;;13.73;2.47;;;20.00;50.10;;;;;;4496054;32;20132;-65
2022/01/18 11:11:58;;;;;;;7.75;2.15;;;20.00;50.10;;;;;;4495946;32;20137;-65
2022/01/18 11:14:25;;;;;;;7.97;2.03;;;20.00;50.10;;;;;;4495523;32;20229;-65
2022/01/18 11:16:56;;;;;;;6.63;2.00;;;20.00;50.10;;;;;;4496371;32;20571;-65
2022/01/18 11:21:55;;;;;;;10.95;2.25;;;20.00;50.10;;;;;;4496188;32;20117;-65
2022/01/18 11:24:23;;;;;;;11.10;2.03;;;20.10;50.10;;;;;;4495577;32;20136;-65
2022/01/18 11:26:50;;;;;;;6.38;2.08;;;20.10;50.10;;;;;;4494897;32;20120;-71
2022/01/18 11:29:19;;;;;;;11.13;2.33;;;20.10;50.10;;;;;;4496732;31;20501;-66
2022/01/18 11:31:50;;;;;;;11.27;2.20;;;20.10;50.20;;;;;;4498821;31;20657;-66
2022/01/18 11:34:32;;;;;;;10.18;1.92;;;20.10;50.20;;;;;;4498891;31;20136;-66
2022/01/18 11:37:17;;;;;;;7.30;1.90;;;20.10;50.20;;;;;;4498664;31;20197;-66
2022/01/18 11:39:43;;;;;;;9.05;2.20;;;20.10;50.20;;;;;;4499148;31;20552;-66
2022/01/18 11:42:13;;;;;;;6.47;1.80;;;20.20;50.10;;;;;;4498406;31;20283;-68
2022/01/18 11:44:40;;;;;;;7.05;2.13;;;20.20;49.90;;;;;;4498640;31;20582;-67
2022/01/18 11:47:06;;;;;;;7.90;1.88;;;20.30;49.90;;;;;;4499175;31;20266;-67
2022/01/18 11:49:34;;;;;;;10.45;1.98;;;20.40;49.70;;;;;;4498213;31;20246;-67
2022/01/18 11:52:05;;;;;;;14.38;2.22;;;20.40;49.60;;;;;;4484947;31;20124;-68
2022/01/18 11:57:23;;;;;;;9.05;2.15;;;20.60;49.30;;;;;;4497435;31;20151;-67
2022/01/18 12:00:11;;;;;;;9.07;2.08;;;20.60;49.00;;;;;;4484327;31;20128;-67
2022/01/18 12:02:41;;;;;;;5.97;1.80;;;20.70;48.50;;;;;;4494702;31;20594;-67
2022/01/18 12:05:19;;;;;;;13.07;2.22;;;20.80;48.10;;;;;;4486284;31;20147;-67
2022/01/18 12:07:47;;;;;;;6.05;1.88;;;20.80;47.60;;;;;;4495616;31;20133;-66
2022/01/18 12:10:43;;;;;;;9.68;1.90;;;20.80;47.40;;;;;;4496851;31;20136;-66
2022/01/18 12:13:23;;;;;;;9.93;1.77;;;20.90;47.40;;;;;;4493887;31;20132;-64
2022/01/18 12:15:51;;;;;;;7.88;1.70;;;21.00;47.30;;;;;;4497052;31;20148;-65
2022/01/18 12:18:20;;;;;;;10.23;1.63;;;21.10;47.20;;;;;;4495813;31;20696;-65
2022/01/18 12:20:48;;;;;;;8.48;1.83;;;21.20;47.20;;;;;;4497143;31;20217;-65
2022/01/18 12:23:17;;;;;;;5.60;1.67;;;21.20;47.00;;;;;;4482185;31;20141;-66
2022/01/18 12:26:04;;;;;;;4.75;1.63;;;21.30;46.80;;;;;;4496464;31;20152;-67
2022/01/18 12:37:13;;;;;;;6.25;1.40;;;21.60;46.30;;;;;;4497139;31;20172;-65
2022/01/18 12:45:20;;;;;;;7.85;1.48;;;21.80;46.30;;;;;;4496293;31;20152;-66
2022/01/18 12:47:59;;;;;;;11.20;1.60;;;21.90;46.40;;;;;;4494448;31;20132;-66
2022/01/18 12:50:35;;;;;;;6.13;1.67;;;22.00;46.30;;;;;;4494083;31;20137;-65
2022/01/18 12:53:07;;;;;;;3.08;0.93;;;22.10;46.20;;;;;;4496153;31;20164;-66
2022/01/18 12:55:44;;;;;;;8.15;1.95;;;22.10;46.10;;;;;;4495906;31;20152;-66
2022/01/18 12:58:19;;;;;;;6.72;1.48;;;22.20;46.00;;;;;;4486267;31;20148;-66
2022/01/18 13:00:58;;;;;;;4.50;1.17;;;22.20;45.90;;;;;;4495557;31;20187;-66
2022/01/18 13:03:27;;;;;;;9.45;1.45;;;22.30;45.90;;;;;;4495590;31;20167;-65
2022/01/18 13:06:05;;;;;;;7.82;1.58;;;22.40;46.00;;;;;;4497035;31;20127;-67
2022/01/18 13:08:40;;;;;;;6.88;1.60;;;22.30;46.10;;;;;;4497716;31;20156;-67
2022/01/18 13:11:07;;;;;;;4.90;1.40;;;22.30;46.20;;;;;;4496283;31;20672;-67
2022/01/18 13:13:33;;;;;;;8.00;1.25;;;22.30;46.40;;;;;;4496563;31;20143;-67
2022/01/18 13:16:07;;;;;;;6.28;1.42;;;22.20;46.60;;;;;;4481622;31;20187;-67
2022/01/18 13:27:47;;;;;;;15.95;4.25;;;21.80;47.50;;;;;;4496320;31;20186;-66
2022/01/18 13:29:38;;;;;;;21.33;4.60;;;21.70;47.60;;;;;;4488253;31;20136;-66
2022/01/18 13:32:17;;;;;;;13.95;3.38;;;21.60;47.70;;;;;;4496089;31;20301;-66
2022/01/18 13:34:49;;;;;;;9.90;3.30;;;21.50;47.60;;;;;;4494267;31;20278;-66
2022/01/18 13:37:22;;;;;;;12.38;4.03;;;21.40;47.60;;;;;;4496512;31;20116;-66
2022/01/18 13:39:57;;;;;;;13.63;3.42;;;21.30;47.50;;;;;;4496842;31;20542;-66
2022/01/18 13:42:28;;;;;;;13.20;3.30;;;21.30;47.60;;;;;;4497206;31;20128;-68
2022/01/18 13:45:13;;;;;;;10.40;2.63;;;21.20;47.50;;;;;;4483332;31;20149;-67
2022/01/18 13:47:46;;;;;;;13.35;2.85;;;21.30;47.30;;;;;;4497009;31;20150;-70
2022/01/18 13:50:36;;;;;;;11.73;3.20;;;21.30;48.10;;;;;;4496726;31;20623;-67
2022/01/18 13:53:19;;;;;;;13.18;2.65;;;21.20;47.00;;;;;;4486329;31;20279;-66
2022/01/18 13:55:50;;;;;;;11.07;2.63;;;21.10;47.90;;;;;;4493495;31;20202;-66
2022/01/18 13:58:27;;;;;;;11.23;2.63;;;21.10;47.10;;;;;;4494865;31;20121;-66
2022/01/18 14:01:08;;;;;;;8.75;2.67;;;21.00;47.00;;;;;;4496331;31;20125;-66
2022/01/18 14:03:37;;;;;;;10.27;2.45;;;20.90;47.00;;;;;;4494488;31;20274;-66
2022/01/18 14:06:04;;;;;;;9.07;2.55;;;20.90;47.10;;;;;;4495507;31;20196;-68
2022/01/18 14:08:32;;;;;;;8.35;2.45;;;20.80;47.20;;;;;;4480799;31;20164;-68
2022/01/18 14:11:03;;;;;;;8.57;2.35;;;20.80;47.40;;;;;;4496013;31;20248;-68
2022/01/18 14:13:30;;;;;;;9.55;2.10;;;20.70;47.60;;;;;;4496637;31;20567;-67
2022/01/18 14:15:56;;;;;;;11.50;2.47;;;20.70;47.90;;;;;;4496315;31;20140;-69
2022/01/18 14:18:22;;;;;;;11.20;2.30;;;20.60;48.10;;;;;;4496110;31;20124;-69
2022/01/18 14:20:48;;;;;;;11.18;1.98;;;20.60;48.30;;;;;;4493729;31;20132;-68
2022/01/18 14:23:21;;;;;;;7.47;2.00;;;20.60;48.60;;;;;;4495090;31;20666;-68
2022/01/18 14:25:48;;;;;;;9.57;2.03;;;20.60;48.90;;;;;;4496152;31;20270;-68
2022/01/18 14:28:16;;;;;;;8.23;1.90;;;20.60;49.20;;;;;;4496008;31;20210;-69
2022/01/18 14:30:44;;;;;;;6.93;2.15;;;20.60;49.40;;;;;;4495825;31;20159;-69